M I D A S
Marine Information and Data Acquisition System
Tripno 1077 of the Zeeleeuw from 2006-04-27 07:06:49 to 2006-04-27 13:13:56
Back to CruiseResearch ActivitiesStationsMapUnderway DataData graphs

EquipmentUnitsComment
TimeDGPSUTC
LatitudeDGPSDM.mWGS84
LongitudeDGPSDM.mWGS84
TemperatureSBE03/SBE38deg celciusITS90
ConductivitySBE21S/mITS90
SalinitySBE21 Practical Salinity Units
ChlorophylAChelsea fluorimeterg/lCalibrated in Aceton
Missing or incorrect values are displayed as -999
Sea surface data collected by the RV Zeeleeuw from 2006-04-27 06:12:50 to 2006-04-27 13:24:31
Time Latitude Longitude Temperature Conductivity Salinity ChlorophylA
2006-04-27 06:13:55 51°13.602 2°56.097 18.2714 4.413653 32.584622 16.410546
2006-04-27 06:14:55 51°13.602 2°56.099 18.2805 4.413547 32.583752 16.376836
2006-04-27 06:15:56 51°13.6 2°56.099 18.2932 4.413442 32.583442 16.376836
2006-04-27 06:16:55 51°13.601 2°56.099 18.2899 4.413442 32.582882 16.376836
2006-04-27 06:17:52 51°13.601 2°56.099 18.2652 4.413442 32.582322 16.376836
2006-04-27 06:18:52 51°13.601 2°56.1 18.3037 4.413336 32.582571 16.376836
2006-04-27 06:19:52 51°13.602 2°56.1 18.3149 4.413336 32.582012 16.343127
2006-04-27 06:20:52 51°13.602 2°56.1 18.325 4.413125 32.580831 16.343127
2006-04-27 06:21:52 51°13.602 2°56.1 18.3341 4.41302 32.579401 16.343127
2006-04-27 06:22:52 51°13.602 2°56.1 18.3447 4.41302 32.579401 16.309418
2006-04-27 06:23:52 51°13.602 2°56.1 18.3519 4.41302 32.580521 16.309418
2006-04-27 06:24:52 51°13.602 2°56.1 18.3592 4.412809 32.57822 16.309418
2006-04-27 06:25:52 51°13.601 2°56.099 18.3632 4.412809 32.57878 16.275708
2006-04-27 06:26:52 51°13.601 2°56.099 18.3776 4.412809 32.57822 16.275708
2006-04-27 06:27:52 51°13.602 2°56.1 18.3967 4.412809 32.57822 16.241999
2006-04-27 06:28:52 51°13.602 2°56.1 18.3992 4.412704 32.57735 16.241999
2006-04-27 06:29:52 51°13.602 2°56.099 18.414 4.412704 32.575671 16.241999
2006-04-27 06:30:52 51°13.602 2°56.099 18.4221 4.412598 32.57536 16.208289
2006-04-27 06:31:52 51°13.601 2°56.1 18.4221 4.412493 32.573931 16.208289
2006-04-27 06:32:52 51°13.601 2°56.1 18.4228 4.412598 32.574801 16.208289
2006-04-27 06:33:52 51°13.602 2°56.1 18.4342 4.412704 32.575111 16.140871
2006-04-27 06:34:52 51°13.601 2°56.1 18.4367 4.412598 32.573122 16.17458
2006-04-27 06:35:52 51°13.601 2°56.099 18.4498 4.412598 32.573122 16.140871
2006-04-27 06:36:52 51°13.601 2°56.099 18.4597 4.412598 32.572562 16.140871
2006-04-27 06:37:52 51°13.601 2°56.099 18.4718 4.412598 32.572562 16.140871
2006-04-27 06:38:52 51°13.601 2°56.099 18.4823 4.412598 32.572562 16.140871
2006-04-27 06:39:52 51°13.601 2°56.098 18.4879 4.412493 32.571132 16.140871
2006-04-27 06:40:52 51°13.602 2°56.098 18.5002 4.412704 32.571194 16.107161
2006-04-27 06:41:52 51°13.601 2°56.099 18.506 4.412598 32.570324 16.073452
2006-04-27 06:42:52 51°13.602 2°56.099 18.5163 4.412704 32.571194 16.073452
2006-04-27 06:43:52 51°13.602 2°56.099 18.5478 4.412704 32.571194 16.039742
2006-04-27 06:44:52 51°13.602 2°56.099 18.5347 4.412598 32.570324 16.039742
2006-04-27 06:45:52 51°13.602 2°56.1 18.545 4.412704 32.571194 16.006033
2006-04-27 06:46:52 51°13.602 2°56.099 18.572 4.412704 32.570634 16.006033
2006-04-27 06:47:52 51°13.602 2°56.099 18.6765 4.412704 32.570634 15.972324
2006-04-27 06:48:52 51°13.601 2°56.099 18.6381 4.412704 32.570075 15.972324
2006-04-27 06:49:52 51°13.601 2°56.1 18.6011 4.412809 32.570945 15.938614
2006-04-27 06:50:52 51°13.607 2°56.074 18.6116 4.412598 32.569205 15.938614
2006-04-27 06:51:52 51°13.629 2°55.985 18.5888 4.412703 32.568396 15.938614
2006-04-27 06:52:52 51°13.659 2°55.878 11.6659 3.742743 29.644947 11.893486
2006-04-27 06:53:52 51°13.706 2°55.781 11.4499 3.396757 29.18321 10.106888
2006-04-27 06:54:52 51°13.733 2°55.713 11.3745 3.316518 28.616979 9.668665
2006-04-27 06:55:51 51°13.731 2°55.716 11.3597 3.359377 29.097033 9.837212
2006-04-27 06:56:52 51°13.731 2°55.711 11.3469 3.317572 28.717774 10.140597
2006-04-27 06:57:50 51°13.783 2°55.681 11.3907 3.311149 28.672184 10.612529
2006-04-27 06:58:52 51°13.889 2°55.594 11.3783 3.225021 27.802719 10.646238
2006-04-27 06:59:52 51°14.01 2°55.509 11.3446 3.315361 28.715648 10.646238
2006-04-27 07:00:52 51°14.132 2°55.417 11.3328 3.343161 28.998591 10.915913
2006-04-27 07:01:52 51°14.247 2°55.288 11.3133 3.362853 29.197893 11.151879
2006-04-27 07:02:52 51°14.339 2°55.108 11.2896 3.359483 29.179884 11.08446
2006-04-27 07:03:51 51°14.451 2°54.936 11.164 3.43594 29.963848 13.275571
2006-04-27 07:04:52 51°14.612 2°54.763 10.9953 3.509457 30.810618 15.466683
2006-04-27 07:05:52 51°14.793 2°54.613 10.8958 3.544428 31.263304 14.792494
2006-04-27 07:06:51 51°14.973 2°54.471 10.8762 3.557069 31.456191 13.3767
2006-04-27 07:07:52 51°15.132 2°54.263 10.8551 3.558755 31.494699 16.579093
2006-04-27 07:08:52 51°15.311 2°54.108 10.8213 3.552224 31.447647 14.084597
2006-04-27 07:09:52 51°15.484 2°53.919 10.7984 3.524838 31.200293 12.196871
2006-04-27 07:10:52 51°15.659 2°53.73 10.7532 3.560019 31.573207 11.286717
2006-04-27 07:11:51 51°15.83 2°53.542 10.7169 3.579191 31.801773 10.208016
2006-04-27 07:12:51 51°15.996 2°53.328 10.7186 3.60184 32.062671 9.601247
2006-04-27 07:13:52 51°16.176 2°53.138 10.7113 3.577295 31.803935 10.174306
2006-04-27 07:14:52 51°16.36 2°52.966 10.6923 3.568131 31.726627 11.017042
2006-04-27 07:15:52 51°16.548 2°52.815 10.6357 3.575611 31.825624 10.54511
2006-04-27 07:16:51 51°16.726 2°52.66 10.6156 3.662309 32.729895 8.960768
2006-04-27 07:17:52 51°16.908 2°52.514 10.6044 3.667471 32.790585 9.129315
2006-04-27 07:18:52 51°17.098 2°52.428 10.6064 3.653249 32.663532 9.39899
2006-04-27 07:19:52 51°17.286 2°52.321 10.6116 3.632285 32.45658 9.870922
2006-04-27 07:20:51 51°17.468 2°52.194 10.62 3.613218 32.253736 10.174306
2006-04-27 07:21:52 51°17.629 2°51.978 10.6346 3.598259 32.106052 10.443982
2006-04-27 07:22:52 51°17.751 2°51.699 10.6473 3.587725 31.988957 10.983332
2006-04-27 07:23:52 51°17.83 2°51.368 10.6544 3.576138 31.864376 11.151879
2006-04-27 07:24:52 51°17.926 2°51.041 10.6505 3.562971 31.731267 11.826067
2006-04-27 07:25:52 51°18.017 2°50.705 10.6307 3.554649 31.648951 11.522683
2006-04-27 07:26:52 51°18.11 2°50.371 10.58 3.570134 31.826602 11.893486
2006-04-27 07:27:52 51°18.199 2°50.033 10.526 3.577824 31.949819 12.129452
2006-04-27 07:28:51 51°18.285 2°49.695 10.4882 3.562129 31.837579 12.028324
2006-04-27 07:29:52 51°18.377 2°49.35 10.4756 3.525684 31.503055 11.017042
2006-04-27 07:30:52 51°18.473 2°49.022 10.4526 3.532426 31.589468 11.151879
2006-04-27 07:31:52 51°18.572 2°48.692 10.4362 3.553282 31.814962 11.11817
2006-04-27 07:32:52 51°18.662 2°48.353 10.3973 3.566028 31.959425 10.949623
2006-04-27 07:33:52 51°18.756 2°48.012 10.3397 3.580144 32.13982 10.882204
2006-04-27 07:34:52 51°18.85 2°47.667 10.1941 3.588361 32.282569 11.623811
2006-04-27 07:35:51 51°18.941 2°47.323 10.1592 3.574879 32.255877 11.354136
2006-04-27 07:36:52 51°19.037 2°46.967 10.1285 3.5674 32.201695 10.848494
2006-04-27 07:37:52 51°19.131 2°46.615 10.1725 3.560659 32.157736 10.376563
2006-04-27 07:38:52 51°19.224 2°46.26 10.3123 3.547281 31.973618 9.870922
2006-04-27 07:39:52 51°19.317 2°45.906 10.2552 3.54254 31.831214 9.39899
2006-04-27 07:40:52 51°19.413 2°45.555 10.17 3.540645 31.879501 9.837212
2006-04-27 07:41:51 51°19.51 2°45.217 10.0801 3.552548 32.05634 9.533828
2006-04-27 07:42:52 51°19.604 2°44.857 10.015 3.578673 32.405801 9.095606
2006-04-27 07:43:51 51°19.692 2°44.506 9.994 3.5871 32.538652 8.960768
2006-04-27 07:44:49 51°19.779 2°44.161 9.9767 3.588575 32.571032 8.960768
2006-04-27 07:45:52 51°19.872 2°43.786 9.9234 3.595107 32.644982 9.028187
2006-04-27 07:46:52 51°19.964 2°43.43 9.8942 3.60206 32.76513 8.657383
2006-04-27 07:47:52 51°20.055 2°43.072 9.9168 3.598057 32.734942 8.758512
2006-04-27 07:48:52 51°20.148 2°42.713 9.8742 3.592474 32.686555 8.353999
2006-04-27 07:49:52 51°20.239 2°42.354 9.8609 3.589946 32.667592 8.050614
2006-04-27 07:50:52 51°20.328 2°41.993 9.8085 3.602798 32.841187 7.679811
2006-04-27 07:51:52 51°20.412 2°41.635 9.7568 3.606169 32.901278 7.612392
2006-04-27 07:52:51 51°20.497 2°41.297 9.7266 3.667376 33.588142 7.342717
2006-04-27 07:53:52 51°20.559 2°40.928 9.7273 3.680756 33.738266 7.578683
2006-04-27 07:54:52 51°20.598 2°40.553 9.7072 3.685076 33.786156 7.443845
2006-04-27 07:55:52 51°20.631 2°40.178 9.6987 3.684865 33.799284 7.410136
2006-04-27 07:56:52 51°20.651 2°39.799 9.6987 3.690344 33.862117 7.309007
2006-04-27 07:57:52 51°20.678 2°39.42 9.6799 3.692135 33.888844 7.342717
2006-04-27 07:58:52 51°20.705 2°39.039 9.6689 3.697192 33.952814 7.241589
2006-04-27 07:59:52 51°20.73 2°38.655 9.6765 3.69793 33.964198 7.207879
2006-04-27 08:00:52 51°20.756 2°38.271 9.6442 3.698351 33.973122 7.17417
2006-04-27 08:01:51 51°20.785 2°37.898 9.5867 3.70246 34.060652 7.17417
2006-04-27 08:02:52 51°20.815 2°37.512 9.5654 3.703093 34.104251 7.106751
2006-04-27 08:03:52 51°20.846 2°37.131 9.5497 3.704147 34.135206 7.039332
2006-04-27 08:04:51 51°20.876 2°36.756 9.5381 3.705517 34.160126 7.005623
2006-04-27 08:05:52 51°20.906 2°36.367 9.54 3.706676 34.181345 6.971913
2006-04-27 08:06:52 51°20.949 2°35.988 9.5286 3.707624 34.196524 6.971913
2006-04-27 08:07:52 51°21.018 2°35.623 9.5255 3.708572 34.211708 6.938204
2006-04-27 08:08:51 51°21.088 2°35.264 9.5284 3.706676 34.195339 6.938204
2006-04-27 08:09:51 51°21.185 2°34.914 9.5224 3.709415 34.221923 6.837076
2006-04-27 08:10:51 51°21.288 2°34.569 9.5108 3.703831 34.170782 6.803366
2006-04-27 08:11:52 51°21.393 2°34.22 9.494 3.70794 34.222338 6.769657
2006-04-27 08:12:51 51°21.496 2°33.893 9.4677 3.711733 34.280045 6.803366
2006-04-27 08:13:52 51°21.624 2°33.587 9.4781 3.719214 34.376562 6.904494
2006-04-27 08:14:51 51°21.748 2°33.299 9.5139 3.731962 34.493685 6.938204
2006-04-27 08:15:52 51°21.872 2°32.996 9.5378 3.739232 34.535508 7.207879
2006-04-27 08:16:51 51°21.991 2°32.698 9.5365 3.74176 34.549735 7.477554
2006-04-27 08:17:52 51°22.118 2°32.386 9.5451 3.743551 34.565016 7.949486
2006-04-27 08:18:51 51°22.284 2°32.166 9.5181 3.746712 34.596745 7.376426
2006-04-27 08:19:51 51°22.456 2°31.947 9.4846 3.745975 34.61041 7.207879
2006-04-27 08:20:52 51°22.563 2°31.617 9.4422 3.742498 34.618745 7.039332
2006-04-27 08:21:52 51°22.6 2°31.236 9.384 3.739865 34.620797 6.904494
2006-04-27 08:22:51 51°22.631 2°30.858 9.3559 3.734492 34.62463 6.803366
2006-04-27 08:23:51 51°22.657 2°30.47 9.3558 3.73228 34.619185 6.803366
2006-04-27 08:24:51 51°22.68 2°30.084 9.3862 3.733017 34.622847 6.938204
2006-04-27 08:25:52 51°22.698 2°29.694 9.411 3.736599 34.628193 6.971913
2006-04-27 08:26:52 51°22.706 2°29.312 9.3919 3.738811 34.637587 7.14046
2006-04-27 08:27:52 51°22.668 2°28.924 9.3849 3.737337 34.641346 7.207879
2006-04-27 08:28:51 51°22.642 2°28.539 9.3716 3.737653 34.652527 7.106751
2006-04-27 08:29:52 51°22.617 2°28.139 9.3589 3.738074 34.671934 7.073042
2006-04-27 08:30:52 51°22.591 2°27.744 9.3449 3.739971 34.701052 7.039332
2006-04-27 08:31:52 51°22.571 2°27.348 9.3063 3.741762 34.731483 6.938204
2006-04-27 08:32:52 51°22.554 2°26.953 9.2638 3.740393 34.764249 6.938204
2006-04-27 08:33:52 51°22.545 2°26.556 9.2481 3.739024 34.781947 6.904494
2006-04-27 08:34:52 51°22.599 2°26.187 9.215 3.738181 34.795559 6.837076
2006-04-27 08:35:52 51°22.738 2°25.919 9.179 3.737023 34.805111 6.837076
2006-04-27 08:36:52 51°22.916 2°25.725 9.1464 3.734916 34.82885 6.904494
2006-04-27 08:37:52 51°23.109 2°25.584 9.141 3.734073 34.835318 6.971913
2006-04-27 08:38:51 51°23.303 2°25.474 9.1438 3.734074 34.849755 7.106751
2006-04-27 08:39:52 51°23.51 2°25.449 9.1453 3.735654 34.861372 7.039332
2006-04-27 08:40:52 51°23.714 2°25.452 9.137 3.736707 34.87313 7.039332
2006-04-27 08:41:51 51°23.913 2°25.45 9.1257 3.737234 34.88905 6.971913
2006-04-27 08:42:52 51°24.117 2°25.446 9.1141 3.737445 34.899279 6.938204
2006-04-27 08:43:52 51°24.315 2°25.439 9.0932 3.736813 34.912004 6.971913
2006-04-27 08:44:52 51°24.511 2°25.429 9.0846 3.735865 34.918231 6.971913
2006-04-27 08:45:52 51°24.706 2°25.419 9.0565 3.735655 34.923285 6.971913
2006-04-27 08:46:52 51°24.902 2°25.414 9.0341 3.734601 34.937295 7.073042
2006-04-27 08:47:52 51°25.097 2°25.415 9.0128 3.733337 34.948322 7.073042
2006-04-27 08:48:52 51°25.293 2°25.418 8.998 3.732179 34.957233 6.971913
2006-04-27 08:49:52 51°25.489 2°25.418 8.983 3.731547 34.965187 6.938204
2006-04-27 08:50:51 51°25.684 2°25.422 8.9575 3.730177 34.973538 7.106751
2006-04-27 08:51:52 51°25.886 2°25.424 8.9431 3.729335 34.978497 7.005623
2006-04-27 08:52:52 51°26.084 2°25.43 8.9334 3.728597 34.98051 6.938204
2006-04-27 08:53:52 51°26.281 2°25.463 8.9046 3.728597 34.992669 6.938204
2006-04-27 08:54:51 51°26.475 2°25.497 8.8777 3.727544 35.010047 6.971913
2006-04-27 08:55:52 51°26.674 2°25.533 8.8633 3.726385 35.023102 6.904494
2006-04-27 08:56:52 51°26.872 2°25.564 8.853 3.725753 35.030306 6.870785
2006-04-27 08:57:52 51°27.069 2°25.604 8.8447 3.725121 35.03833 6.870785
2006-04-27 08:58:52 51°27.266 2°25.641 8.8427 3.725122 35.041586 6.904494
2006-04-27 08:59:52 51°27.464 2°25.674 8.8362 3.724911 35.042634 6.870785
2006-04-27 09:00:51 51°27.659 2°25.7 8.8332 3.7247 35.045312 6.870785
2006-04-27 09:01:52 51°27.859 2°25.731 8.821 3.723963 35.042467 6.971913
2006-04-27 09:02:52 51°28.058 2°25.764 8.8104 3.723225 35.046955 6.971913
2006-04-27 09:03:52 51°28.257 2°25.798 8.7845 3.723226 35.062447 6.870785
2006-04-27 09:04:52 51°28.457 2°25.833 8.7583 3.72154 35.070054 7.005623
2006-04-27 09:05:52 51°28.656 2°25.869 8.7352 3.720487 35.08023 7.106751
2006-04-27 09:06:52 51°28.858 2°25.866 8.7258 3.720592 35.09851 7.275298
2006-04-27 09:07:51 51°29.055 2°25.865 8.7219 3.720698 35.108621 7.612392
2006-04-27 09:08:52 51°29.259 2°25.866 8.7176 3.719855 35.107947 7.511264
2006-04-27 09:09:52 51°29.458 2°25.866 8.7195 3.721646 35.130058 7.342717
2006-04-27 09:10:52 51°29.658 2°25.882 8.7154 3.722489 35.138103 7.14046
2006-04-27 09:11:52 51°29.857 2°25.913 8.7127 3.722384 35.141094 7.17417
2006-04-27 09:12:52 51°30.056 2°25.94 8.7121 3.722173 35.138877 7.241589
2006-04-27 09:13:52 51°30.248 2°26.01 8.7086 3.722068 35.138589 7.342717
2006-04-27 09:14:51 51°30.429 2°26.121 8.7133 3.721962 35.13912 7.342717
2006-04-27 09:15:52 51°30.615 2°26.234 8.7118 3.722278 35.144085 7.342717
2006-04-27 09:16:52 51°30.796 2°26.337 8.7085 3.723121 35.151312 7.106751
2006-04-27 09:17:52 51°30.977 2°26.443 8.6974 3.723753 35.160423 7.005623
2006-04-27 09:18:52 51°31.159 2°26.55 8.6877 3.723754 35.166166 6.870785
2006-04-27 09:19:52 51°31.344 2°26.657 8.6811 3.723332 35.174867 6.870785
2006-04-27 09:20:52 51°31.528 2°26.768 8.6632 3.719961 35.15005 6.837076
2006-04-27 09:21:52 51°31.712 2°26.878 8.6561 3.722384 35.18789 6.837076
2006-04-27 09:22:52 51°31.896 2°26.993 8.6481 3.722279 35.197471 6.769657
2006-04-27 09:23:52 51°32.076 2°27.123 8.6461 3.722701 35.203557 6.938204
2006-04-27 09:24:52 51°32.258 2°27.255 8.6507 3.72249 35.206274 6.971913
2006-04-27 09:25:51 51°32.436 2°27.385 8.6502 3.722595 35.203269 7.073042
2006-04-27 09:26:52 51°32.621 2°27.518 8.656 3.722279 35.199939 7.17417
2006-04-27 09:27:52 51°32.802 2°27.651 8.6567 3.722384 35.195291 7.14046
2006-04-27 09:28:51 51°32.981 2°27.78 8.6555 3.722279 35.198294 7.207879
2006-04-27 09:29:52 51°33.165 2°27.918 8.6505 3.721963 35.194141 7.17417
2006-04-27 09:30:51 51°33.346 2°28.05 8.6423 3.72112 35.194309 7.342717
2006-04-27 09:31:52 51°33.53 2°28.197 8.6295 3.720488 35.19423 7.544973
2006-04-27 09:32:52 51°33.71 2°28.341 8.6205 3.719751 35.197157 7.612392
2006-04-27 09:33:52 51°33.889 2°28.484 8.597 3.719224 35.205603 7.511264
2006-04-27 09:34:50 51°34.064 2°28.62 8.5773 3.717855 35.208461 7.376426
2006-04-27 09:35:52 51°34.249 2°28.767 8.5639 3.716591 35.213261 7.309007
2006-04-27 09:36:52 51°34.429 2°28.909 8.547 3.715116 35.214191 7.241589
2006-04-27 09:37:51 51°34.607 2°29.049 8.5354 3.713641 35.217602 7.207879
2006-04-27 09:38:52 51°34.791 2°29.193 8.5331 3.712588 35.213904 7.207879
2006-04-27 09:39:52 51°34.971 2°29.334 8.5334 3.712377 35.212503 7.207879
2006-04-27 09:40:51 51°35.143 2°29.493 8.5249 3.711956 35.21218 7.207879
2006-04-27 09:41:52 51°35.318 2°29.658 8.5246 3.711745 35.214084 7.207879
2006-04-27 09:42:52 51°35.491 2°29.82 8.5277 3.711956 35.21218 7.106751
2006-04-27 09:43:52 51°35.663 2°29.982 8.5278 3.711745 35.211605 7.106751
2006-04-27 09:44:52 51°35.836 2°30.147 8.5367 3.712272 35.212216 7.14046
2006-04-27 09:45:51 51°36.006 2°30.306 8.5452 3.712798 35.213652 7.14046
2006-04-27 09:46:52 51°36.182 2°30.472 8.5489 3.713325 35.213436 7.17417
2006-04-27 09:47:52 51°36.356 2°30.634 8.5523 3.713852 35.214047 7.207879
2006-04-27 09:48:52 51°36.527 2°30.801 8.5578 3.714273 35.213545 7.241589
2006-04-27 09:49:51 51°36.699 2°30.961 8.5562 3.714905 35.216919 7.275298
2006-04-27 09:50:52 51°36.875 2°31.133 8.5574 3.714905 35.214442 7.275298
2006-04-27 09:51:52 51°37.049 2°31.297 8.5571 3.714695 35.214693 7.241589
2006-04-27 09:52:52 51°37.223 2°31.459 8.5515 3.714273 35.213545 7.17417
2006-04-27 09:53:51 51°37.395 2°31.622 8.5485 3.714168 35.21656 7.17417
2006-04-27 09:54:52 51°37.573 2°31.788 8.5449 3.713852 35.213221 7.14046
2006-04-27 09:55:52 51°37.746 2°31.956 8.5439 3.71322 35.211498 7.14046
2006-04-27 09:56:52 51°37.923 2°32.121 8.5467 3.713009 35.210923 7.073042
2006-04-27 09:57:52 51°38.099 2°32.288 8.544 3.712693 35.211713 7.073042
2006-04-27 09:58:52 51°38.275 2°32.454 8.5361 3.712482 35.21279 7.106751
2006-04-27 09:59:51 51°38.448 2°32.622 8.5284 3.711956 35.210528 7.106751
2006-04-27 10:00:52 51°38.628 2°32.794 8.5265 3.711534 35.211857 7.106751
2006-04-27 10:01:51 51°38.804 2°32.957 8.5228 3.711323 35.20963 7.106751
2006-04-27 10:02:52 51°38.984 2°33.128 8.5226 3.710586 35.208444 7.17417
2006-04-27 10:03:51 51°39.159 2°33.292 8.5194 3.710165 35.206468 7.106751
2006-04-27 10:04:51 51°39.338 2°33.458 8.517 3.71027 35.205103 7.106751
2006-04-27 10:05:51 51°39.517 2°33.624 8.5096 3.709743 35.206145 7.14046
2006-04-27 10:06:51 51°39.697 2°33.79 8.5025 3.709217 35.205534 7.241589
2006-04-27 10:07:52 51°39.882 2°33.957 8.5033 3.70869 35.20079 7.309007
2006-04-27 10:08:51 51°40.058 2°34.123 8.4983 3.708058 35.199891 7.309007
2006-04-27 10:09:51 51°40.24 2°34.29 8.4935 3.70711 35.19813 7.376426
2006-04-27 10:10:52 51°40.424 2°34.465 8.486 3.706372 35.19777 7.443845
2006-04-27 10:11:52 51°40.548 2°34.737 8.4743 3.705951 35.194138 7.477554
2006-04-27 10:12:52 51°40.631 2°35.053 8.4751 3.704687 35.191512 7.477554
2006-04-27 10:13:51 51°40.648 2°35.398 8.4875 3.705213 35.192951 7.443845
2006-04-27 10:14:52 51°40.641 2°35.761 8.4977 3.70574 35.189429 7.241589
2006-04-27 10:15:52 51°40.609 2°36.117 8.5152 3.706899 35.188462 7.207879
2006-04-27 10:16:51 51°40.574 2°36.471 8.508 3.706899 35.186809 7.14046
2006-04-27 10:17:52 51°40.51 2°36.824 8.5052 3.706056 35.172941 7.039332
2006-04-27 10:18:51 51°40.426 2°37.155 8.5002 3.704581 35.163125 7.005623
2006-04-27 10:19:51 51°40.342 2°37.493 8.4937 3.702685 35.148852 7.005623
2006-04-27 10:20:51 51°40.26 2°37.831 8.4751 3.702685 35.158761 6.904494
2006-04-27 10:21:52 51°40.176 2°38.173 8.4412 3.700894 35.159643 6.837076
2006-04-27 10:22:51 51°40.098 2°38.505 8.414 3.696259 35.139502 6.803366
2006-04-27 10:23:52 51°40.016 2°38.849 8.3895 3.692466 35.125791 6.702238
2006-04-27 10:24:52 51°39.937 2°39.191 8.3724 3.689517 35.120175 6.634819
2006-04-27 10:25:52 51°39.849 2°39.525 8.368 3.687936 35.111695 6.5674
2006-04-27 10:26:52 51°39.762 2°39.863 8.3831 3.686567 35.103792 6.533691
2006-04-27 10:27:52 51°39.678 2°40.201 8.41 3.687093 35.09283 6.432563
2006-04-27 10:28:52 51°39.589 2°40.538 8.4337 3.688041 35.078083 6.432563
2006-04-27 10:29:52 51°39.415 2°40.756 8.4693 3.68941 35.05957 6.365144
2006-04-27 10:30:52 51°39.194 2°40.788 8.489 3.688462 35.021525 6.398853
2006-04-27 10:31:52 51°38.972 2°40.773 8.5133 3.687514 34.993405 6.432563
2006-04-27 10:32:52 51°38.752 2°40.711 8.5436 3.691411 35.014869 6.499982
2006-04-27 10:33:51 51°38.535 2°40.659 8.5591 3.691727 34.989462 6.634819
2006-04-27 10:34:52 51°38.313 2°40.6 8.5769 3.691727 34.973057 6.702238
2006-04-27 10:35:52 51°38.101 2°40.512 8.6088 3.691516 34.946259 6.837076
2006-04-27 10:36:52 51°37.894 2°40.395 8.629 3.692464 34.932529 6.904494
2006-04-27 10:37:52 51°37.712 2°40.214 8.6666 3.694149 34.924952 6.870785
2006-04-27 10:38:51 51°37.657 2°39.906 8.6689 3.697099 34.925797 6.634819
2006-04-27 10:39:51 51°37.649 2°39.568 8.6498 3.697731 34.932448 6.668529
2006-04-27 10:40:52 51°37.636 2°39.223 8.6114 3.69594 34.938093 6.870785
2006-04-27 10:41:52 51°37.62 2°38.883 8.5872 3.694149 34.948656 6.904494
2006-04-27 10:42:51 51°37.602 2°38.549 8.5815 3.693518 34.962452 6.803366
2006-04-27 10:43:51 51°37.581 2°38.21 8.5604 3.694887 34.992464 6.735947
2006-04-27 10:44:52 51°37.578 2°37.868 8.5449 3.696257 35.014296 6.668529
2006-04-27 10:45:51 51°37.586 2°37.535 8.525 3.697627 35.050107 6.60111
2006-04-27 10:46:51 51°37.583 2°37.196 8.5092 3.698997 35.088434 6.60111
2006-04-27 10:47:52 51°37.569 2°36.849 8.4955 3.69984 35.108053 6.5674
2006-04-27 10:48:52 51°37.535 2°36.515 8.4695 3.702263 35.158434 6.634819
2006-04-27 10:49:51 51°37.495 2°36.189 8.4781 3.703949 35.183708 6.803366
2006-04-27 10:50:51 51°37.457 2°35.857 8.4943 3.705213 35.189643 6.803366
2006-04-27 10:51:51 51°37.421 2°35.525 8.5044 3.706161 35.188927 6.837076
2006-04-27 10:52:52 51°37.387 2°35.193 8.5258 3.706899 35.182678 6.870785
2006-04-27 10:53:52 51°37.337 2°34.877 8.5361 3.707847 35.177012 6.870785
2006-04-27 10:54:52 51°37.271 2°34.575 8.5504 3.709322 35.178567 6.837076
2006-04-27 10:55:52 51°37.195 2°34.285 8.544 3.71048 35.180909 6.803366
2006-04-27 10:56:52 51°37.112 2°34.004 8.5497 3.710902 35.184535 6.837076
2006-04-27 10:57:52 51°36.942 2°33.845 8.5677 3.711218 35.187874 6.735947
2006-04-27 10:58:52 51°36.743 2°33.746 8.568 3.71206 35.179454 6.702238
2006-04-27 10:59:52 51°36.544 2°33.645 8.5752 3.712061 35.185226 6.735947
2006-04-27 11:00:51 51°36.348 2°33.546 8.5927 3.713114 35.181508 6.668529
2006-04-27 11:01:52 51°36.147 2°33.442 8.5986 3.715326 35.190023 6.60111
2006-04-27 11:02:52 51°35.948 2°33.34 8.607 3.71638 35.193723 6.5674
2006-04-27 11:03:52 51°35.75 2°33.235 8.6113 3.717012 35.195448 6.533691
2006-04-27 11:04:52 51°35.553 2°33.129 8.6123 3.716696 35.188818 6.533691
2006-04-27 11:05:51 51°35.359 2°33.022 8.6259 3.716801 35.184164 6.533691
2006-04-27 11:06:52 51°35.159 2°32.915 8.6285 3.717012 35.178154 6.466272
2006-04-27 11:07:52 51°34.961 2°32.811 8.6302 3.716695 35.169061 6.499982
2006-04-27 11:08:51 51°34.768 2°32.71 8.6322 3.713429 35.133809 6.499982
2006-04-27 11:09:51 51°34.565 2°32.635 8.6402 3.718381 35.179426 6.499982
2006-04-27 11:10:51 51°34.358 2°32.581 8.6434 3.719224 35.183373 6.466272
2006-04-27 11:11:52 51°34.146 2°32.547 8.6501 3.717117 35.157877 6.466272
2006-04-27 11:12:52 51°33.934 2°32.535 8.658 3.719961 35.183742 6.466272
2006-04-27 11:13:52 51°33.724 2°32.516 8.6625 3.716379 35.136139 6.466272
2006-04-27 11:14:52 51°33.514 2°32.496 8.6805 3.719329 35.159818 6.432563
2006-04-27 11:15:51 51°33.307 2°32.48 8.7121 3.718064 35.126804 6.398853
2006-04-27 11:16:52 51°33.096 2°32.463 8.7282 3.724807 35.169866 6.331435
2006-04-27 11:17:52 51°32.889 2°32.441 8.7393 3.725755 35.165893 6.365144
2006-04-27 11:18:52 51°32.682 2°32.419 8.7468 3.726282 35.159954 6.331435
2006-04-27 11:19:52 51°32.475 2°32.393 8.76 3.726703 35.155369 6.365144
2006-04-27 11:20:52 51°32.269 2°32.387 8.7678 3.72723 35.154352 6.365144
2006-04-27 11:21:51 51°32.067 2°32.382 8.7692 3.727967 35.153092 6.398853
2006-04-27 11:22:52 51°31.86 2°32.368 8.7697 3.727862 35.147072 6.432563
2006-04-27 11:23:51 51°31.663 2°32.34 8.7677 3.727019 35.140673 6.432563
2006-04-27 11:24:52 51°31.459 2°32.323 8.7795 3.726492 35.131866 6.398853
2006-04-27 11:25:52 51°31.272 2°32.471 8.7948 3.726597 35.123974 6.365144
2006-04-27 11:26:52 51°31.1 2°32.687 8.8141 3.726492 35.102434 6.331435
2006-04-27 11:27:52 51°30.922 2°32.888 8.8503 3.727545 35.097975 6.264016
2006-04-27 11:28:52 51°30.743 2°33.088 8.8743 3.728282 35.068196 6.230306
2006-04-27 11:29:51 51°30.564 2°33.288 8.9028 3.728493 35.048422 6.331435
2006-04-27 11:30:52 51°30.379 2°33.503 8.9149 3.730283 35.04034 6.331435
2006-04-27 11:31:52 51°30.192 2°33.712 8.9272 3.730073 35.025949 6.398853
2006-04-27 11:32:51 51°30.009 2°33.93 8.9401 3.727544 34.98976 6.466272
2006-04-27 11:33:52 51°29.82 2°34.147 8.9551 3.730178 35.001895 6.432563
2006-04-27 11:34:52 51°29.641 2°34.366 8.9715 3.730704 34.992 6.499982
2006-04-27 11:35:52 51°29.466 2°34.588 8.9827 3.730599 34.97956 6.533691
2006-04-27 11:36:51 51°29.298 2°34.81 8.9979 3.730915 34.968293 6.60111
2006-04-27 11:37:52 51°29.124 2°35.035 9.012 3.731231 34.958653 6.668529
2006-04-27 11:38:52 51°28.954 2°35.262 9.0375 3.731862 34.945856 6.735947
2006-04-27 11:39:51 51°28.789 2°35.488 9.0616 3.733232 34.935117 6.668529
2006-04-27 11:40:51 51°28.618 2°35.717 9.0917 3.734917 34.929301 6.60111
2006-04-27 11:41:52 51°28.441 2°35.949 9.0265 3.736919 34.929203 6.533691
2006-04-27 11:42:52 51°28.266 2°36.178 9.0709 3.734075 34.963284 6.60111
2006-04-27 11:43:52 51°28.092 2°36.408 9.1264 3.736497 34.914347 6.365144
2006-04-27 11:44:52 51°27.92 2°36.633 9.0895 3.734495 34.881445 6.264016
2006-04-27 11:45:52 51°27.748 2°36.859 9.0862 3.731019 34.871786 6.398853
2006-04-27 11:46:52 51°27.578 2°37.083 9.1477 3.72986 34.838024 6.331435
2006-04-27 11:47:52 51°27.405 2°37.3 9.2059 3.730912 34.798464 6.398853
2006-04-27 11:48:52 51°27.233 2°37.515 9.2764 3.732914 34.764873 6.398853
2006-04-27 11:49:52 51°27.063 2°37.736 9.3098 3.73639 34.737122 6.432563
2006-04-27 11:50:52 51°26.89 2°37.956 9.3257 3.738391 34.718861 6.432563
2006-04-27 11:51:52 51°26.715 2°38.168 9.3173 3.739023 34.725402 6.432563
2006-04-27 11:52:51 51°26.532 2°38.343 9.2954 3.737232 34.725156 6.466272
2006-04-27 11:53:52 51°26.341 2°38.528 9.285 3.736495 34.73264 6.499982
2006-04-27 11:54:51 51°26.156 2°38.703 9.2624 3.735863 34.73485 6.499982
2006-04-27 11:55:52 51°25.963 2°38.883 9.2474 3.733967 34.736709 6.499982
2006-04-27 11:56:52 51°25.775 2°39.061 9.2438 3.732703 34.732371 6.533691
2006-04-27 11:57:51 51°25.592 2°39.228 9.2627 3.732281 34.73438 6.533691
2006-04-27 11:58:51 51°25.404 2°39.394 9.2778 3.716899 34.551956 6.466272
2006-04-27 11:59:51 51°25.215 2°39.551 9.2783 3.716793 34.538192 6.499982
2006-04-27 12:00:52 51°25.022 2°39.711 9.2513 3.716688 34.556114 6.499982
2006-04-27 12:01:51 51°24.834 2°39.864 9.2416 3.719849 34.601548 6.5674
2006-04-27 12:02:52 51°24.639 2°40.017 9.2204 3.718058 34.574264 6.5674
2006-04-27 12:03:51 51°24.449 2°40.152 9.1748 3.713844 34.575835 6.668529
2006-04-27 12:04:52 51°24.251 2°40.294 9.2075 3.709525 34.556453 6.702238
2006-04-27 12:05:51 51°24.057 2°40.413 9.2215 3.710051 34.528576 6.668529
2006-04-27 12:06:51 51°23.858 2°40.526 9.2415 3.709629 34.517073 6.668529
2006-04-27 12:07:51 51°23.656 2°40.605 9.314 3.71142 34.50236 6.668529
2006-04-27 12:08:51 51°23.451 2°40.654 9.3975 3.717846 34.497696 6.769657
2006-04-27 12:09:52 51°23.251 2°40.703 9.6349 3.714895 34.355584 6.735947
2006-04-27 12:10:52 51°23.055 2°40.753 9.6627 3.676122 33.784135 6.735947
2006-04-27 12:11:52 51°22.858 2°40.802 9.6245 3.678334 33.789916 6.769657
2006-04-27 12:12:52 51°22.66 2°40.854 9.6739 3.680126 33.843502 6.769657
2006-04-27 12:13:52 51°22.461 2°40.904 9.5993 3.683602 33.844548 6.837076
2006-04-27 12:14:52 51°22.263 2°40.96 9.6687 3.686973 33.905919 6.837076
2006-04-27 12:15:52 51°22.062 2°40.994 9.6395 3.694875 33.955251 6.837076
2006-04-27 12:16:52 51°21.858 2°41.033 9.608 3.698878 34.017022 6.837076
2006-04-27 12:17:52 51°21.655 2°41.073 9.5567 3.702987 34.087692 6.837076
2006-04-27 12:18:52 51°21.459 2°41.193 9.6044 3.704673 34.12433 6.837076
2006-04-27 12:19:52 51°21.261 2°41.31 9.5403 3.705411 34.118724 6.870785
2006-04-27 12:20:52 51°21.074 2°41.472 9.5478 3.697088 34.086794 7.039332
2006-04-27 12:21:52 51°20.91 2°41.69 9.8112 3.696983 34.065575 7.039332
2006-04-27 12:22:52 51°20.771 2°41.971 9.8857 3.677805 33.613997 7.14046
2006-04-27 12:23:52 51°20.649 2°42.292 9.7902 3.683178 33.643648 7.14046
2006-04-27 12:24:52 51°20.52 2°42.606 9.7392 3.691923 33.810968 7.14046
2006-04-27 12:25:52 51°20.391 2°42.919 9.7245 3.691924 33.852992 7.241589
2006-04-27 12:26:52 51°20.262 2°43.231 9.7391 3.690976 33.845608 7.241589
2006-04-27 12:27:52 51°20.149 2°43.557 9.7576 3.689606 33.827805 7.241589
2006-04-27 12:28:52 51°20.036 2°43.882 9.7529 3.688236 33.793972 7.275298
2006-04-27 12:29:52 51°19.92 2°44.193 9.7648 3.684233 33.747809 7.376426
2006-04-27 12:30:52 51°19.819 2°44.515 9.8395 3.67296 33.621516 7.477554
2006-04-27 12:31:52 51°19.723 2°44.845 9.969 3.665163 33.474881 7.646101
2006-04-27 12:32:52 51°19.623 2°45.176 9.9666 3.66474 33.369928 7.74723
2006-04-27 12:33:52 51°19.525 2°45.518 9.9774 3.658419 33.293193 7.882067
2006-04-27 12:34:52 51°19.424 2°45.859 9.9261 3.656101 33.271966 7.983195
2006-04-27 12:35:52 51°19.323 2°46.196 9.8595 3.652942 33.290755 8.185452
2006-04-27 12:36:52 51°19.223 2°46.533 9.8292 3.646937 33.284482 8.320289
2006-04-27 12:37:52 51°19.126 2°46.871 9.8268 3.643672 33.27005 8.353999
2006-04-27 12:38:52 51°19.027 2°47.211 9.8307 3.643145 33.267698 8.353999
2006-04-27 12:39:52 51°18.929 2°47.55 9.8328 3.644093 33.27583 8.320289
2006-04-27 12:40:52 51°18.833 2°47.888 9.8459 3.644725 33.276254 8.522546
2006-04-27 12:41:52 51°18.74 2°48.227 10.0893 3.642934 33.223647 8.758512
2006-04-27 12:42:52 51°18.635 2°48.551 10.0349 3.63208 32.901267 9.196734
2006-04-27 12:43:52 51°18.534 2°48.88 10.0215 3.607852 32.735526 9.904631
2006-04-27 12:44:52 51°18.435 2°49.212 10.0432 3.604692 32.702914 9.837212
2006-04-27 12:45:52 51°18.333 2°49.542 10.0063 3.609854 32.73886 9.702375
2006-04-27 12:46:52 51°18.234 2°49.87 9.9563 3.610802 32.801274 10.443982
2006-04-27 12:47:52 51°18.135 2°50.197 9.9841 3.606484 32.778227 11.017042
2006-04-27 12:48:52 51°18.037 2°50.526 10.0937 3.609327 32.772419 11.792358
2006-04-27 12:49:52 51°17.936 2°50.849 10.2802 3.619017 32.746306 12.264289
2006-04-27 12:50:52 51°17.832 2°51.17 10.3653 3.630077 32.714588 11.65752
2006-04-27 12:51:52 51°17.715 2°51.477 10.3689 3.641243 32.760337 10.747366
2006-04-27 12:52:52 51°17.595 2°51.774 10.3582 3.663366 32.990585 10.073178
2006-04-27 12:53:52 51°17.449 2°52.036 10.3846 3.671899 33.079026 9.736084
2006-04-27 12:54:52 51°17.279 2°52.246 10.4952 3.672847 33.048973 9.500118
2006-04-27 12:55:52 51°17.092 2°52.408 10.4886 3.672214 32.959484 9.904631
2006-04-27 12:56:52 51°16.899 2°52.564 10.5164 3.649669 32.741698 11.253007
2006-04-27 12:57:52 51°16.711 2°52.732 10.5501 3.654199 32.753642 10.106888
2006-04-27 12:58:52 51°16.521 2°52.897 10.6748 3.682327 32.992049 9.163024
2006-04-27 12:59:52 51°16.332 2°53.07 10.8871 3.697074 33.021345 8.691093
2006-04-27 13:00:52 51°16.139 2°53.218 10.9755 3.696544 32.775387 8.28658
2006-04-27 13:01:51 51°15.949 2°53.358 10.8445 3.695176 32.820427 9.39899
2006-04-27 13:02:52 51°15.753 2°53.514 10.7918 3.686222 32.801303 9.601247
2006-04-27 13:03:52 51°15.562 2°53.67 10.8135 3.67516 32.724704 9.837212
2006-04-27 13:04:52 51°15.373 2°53.84 10.8881 3.666205 32.606067 10.949623
2006-04-27 13:05:52 51°15.184 2°54.002 10.9489 3.665467 32.53764 12.702512
2006-04-27 13:06:52 51°14.997 2°54.174 11.2227 3.655773 32.364363 12.500255
2006-04-27 13:07:52 51°14.864 2°54.339 11.2997 3.696436 32.514207 11.387845
2006-04-27 13:08:52 51°14.728 2°54.512 11.3297 3.718033 32.720018 10.882204
2006-04-27 13:09:52 51°14.577 2°54.707 11.3306 3.715926 32.659261 10.443982
2006-04-27 13:10:51 51°14.429 2°54.927 11.2646 3.685584 32.390586 11.994614
2006-04-27 13:11:52 51°14.325 2°55.141 11.3903 3.67094 32.250251 13.073315
2006-04-27 13:12:52 51°14.258 2°55.277 11.4103 3.62585 31.696829 16.275708
2006-04-27 13:13:51 51°14.166 2°55.382 11.3683 3.553482 31.026037 15.534101
2006-04-27 13:14:52 51°14.065 2°55.46 11.3735 3.51788 30.694943 14.758785
2006-04-27 13:15:51 51°13.961 2°55.535 11.4726 3.498605 30.498511 14.522819
2006-04-27 13:16:51 51°13.859 2°55.608 11.5803 3.477855 30.194845 14.185725
2006-04-27 13:17:51 51°13.776 2°55.687 11.5376 3.456474 29.932696 13.309281
2006-04-27 13:18:51 51°13.713 2°55.789 11.598 3.43183 29.74244 11.792358
2006-04-27 13:19:51 51°13.664 2°55.897 11.6129 3.395074 29.316255 11.960905
2006-04-27 13:20:51 51°13.625 2°55.993 11.4769 3.392337 29.327548 11.455264
2006-04-27 13:21:51 51°13.605 2°56.07 11.8384 3.388967 29.341596 15.095879
2006-04-27 13:22:52 51°13.6 2°56.093 11.9156 3.389073 29.341979 21.332118
2006-04-27 13:23:51 51°13.6 2°56.1 12.0147 3.389073 29.336962 20.523093